MMGM/GYM METAR and TAF weather

Enter ICAO airport designator
Station Type Date Time Source
MMGM METAR 2021/01/22 00:46 UTC NOAA

MMGM 220046Z 36005KT 10SM SCT030 21/14 A2995 RMK 8/500


Station Type Date Time Source
MMGM Decoded METAR 2021/01/22 00:46 UTC NOAA

Guaymas International Airport, Mexico (MMGM) 27-58N 110-56W
Jan 21, 2021 - 07:46 PM EST / 2021.01.22 0046 UTC
Wind: from the N (360 degrees) at 6 MPH (5 KT):0
Visibility: 10 mile(s):0
Sky conditions: partly cloudy
Temperature: 69 F (21 C)
Dew Point: 57 F (14 C)
Relative Humidity: 64%
Pressure (altimeter): 29.95 in. Hg (1014 hPa)
ob: MMGM 220046Z 36005KT 10SM SCT030 21/14 A2995 RMK 8/500
cycle: 1

Station Type Date Time Source
MMGM TAF 2021/01/22 06:57 UTC NOAA

TAF MMGM 220355Z 2206/2306 03005KT P6SM SCT030
FM221800 20010KT P6SM SCT020 SCT250
FM230200 23005KT P6SM SCT030 BKN250

Example: see airport list